createdAt,value
2017-12-06T00:02:06.859Z,17.92
2017-12-06T00:04:34.446Z,20.67
2017-12-06T00:07:01.981Z,20.35
2017-12-06T00:09:29.583Z,18.12
2017-12-06T00:11:57.896Z,17.45
2017-12-06T00:14:31.316Z,21.17
2017-12-06T00:16:59.884Z,23.60
2017-12-06T00:19:27.488Z,21.35
2017-12-06T00:21:55.028Z,17.30
2017-12-06T00:24:22.569Z,16.05
2017-12-06T00:26:50.156Z,16.83
2017-12-06T00:29:17.696Z,17.05
2017-12-06T00:31:45.308Z,21.58
2017-12-06T00:34:13.615Z,16.17
2017-12-06T00:36:41.202Z,19.30
2017-12-06T00:39:08.744Z,18.35
2017-12-06T00:41:36.327Z,21.37
2017-12-06T00:44:03.871Z,18.92
2017-12-06T00:46:31.448Z,17.10
2017-12-06T00:48:58.994Z,19.25
2017-12-06T00:51:26.582Z,19.35
2017-12-06T00:53:54.888Z,19.52
2017-12-06T00:56:22.478Z,19.35
2017-12-06T00:58:50.017Z,22.05
2017-12-06T01:01:17.593Z,16.65
2017-12-06T01:03:45.125Z,20.00
2017-12-06T01:06:12.715Z,18.25
2017-12-06T01:08:40.260Z,17.65
2017-12-06T01:11:07.849Z,17.60
2017-12-06T01:13:35.496Z,18.85
2017-12-06T01:16:03.080Z,20.70
2017-12-06T01:18:30.625Z,20.83
2017-12-06T01:20:58.208Z,21.67
2017-12-06T01:23:25.756Z,19.45
2017-12-06T01:25:53.343Z,20.23
2017-12-06T01:28:20.895Z,20.20
2017-12-06T01:30:48.487Z,20.15
2017-12-06T01:33:16.034Z,16.85
2017-12-06T01:35:44.383Z,18.08
2017-12-06T01:38:11.922Z,22.02
2017-12-06T01:40:39.513Z,20.52
2017-12-06T01:43:07.819Z,20.20
2017-12-06T01:45:36.181Z,20.00
2017-12-06T01:48:03.715Z,16.25
2017-12-06T01:50:31.300Z,17.30
2017-12-06T01:52:59.613Z,17.90
2017-12-06T01:55:27.195Z,21.75
2017-12-06T01:57:54.739Z,17.10
2017-12-06T02:00:22.408Z,19.95
2017-12-06T02:02:49.957Z,19.15
2017-12-06T02:05:17.548Z,20.25
2017-12-06T02:07:45.089Z,18.75
2017-12-06T02:10:12.676Z,20.27
2017-12-06T02:12:40.213Z,18.33
2017-12-06T02:15:07.797Z,18.85
2017-12-06T02:17:35.340Z,19.92
2017-12-06T02:20:02.921Z,19.33
2017-12-06T02:22:30.468Z,16.42
2017-12-06T02:24:58.052Z,20.15
2017-12-06T02:27:25.593Z,20.77
2017-12-06T02:29:53.183Z,18.25
2017-12-06T02:32:21.489Z,20.27
2017-12-06T02:34:49.076Z,19.42
2017-12-06T02:37:16.620Z,16.70
2017-12-06T02:39:56.237Z,19.87
2017-12-06T02:42:35.647Z,18.65
2017-12-06T02:45:15.229Z,17.02
2017-12-06T02:47:42.772Z,22.37
2017-12-06T02:50:11.121Z,20.90
2017-12-06T02:52:38.657Z,16.67
2017-12-06T02:55:06.244Z,19.62
2017-12-06T02:57:33.785Z,20.45
2017-12-06T03:00:01.369Z,19.58
2017-12-06T03:02:28.909Z,21.37
2017-12-06T03:04:56.488Z,20.40
2017-12-06T03:07:24.020Z,18.40
2017-12-06T03:09:51.659Z,18.55
2017-12-06T03:12:19.321Z,18.52
2017-12-06T03:14:46.901Z,20.27
2017-12-06T03:17:14.509Z,21.48
2017-12-06T03:19:42.855Z,20.85
2017-12-06T03:22:10.390Z,18.95
2017-12-06T03:24:37.975Z,20.10
2017-12-06T03:27:05.564Z,19.10
2017-12-06T03:29:33.863Z,25.80
2017-12-06T03:32:01.444Z,19.25
2017-12-06T03:34:29.033Z,19.60
2017-12-06T03:36:56.579Z,20.77
2017-12-06T03:39:24.117Z,20.05
2017-12-06T03:41:51.692Z,21.80
2017-12-06T03:44:19.229Z,19.77
2017-12-06T03:46:46.813Z,17.42
2017-12-06T03:49:14.350Z,21.35
2017-12-06T03:51:41.935Z,21.55
2017-12-06T03:54:09.481Z,22.60
2017-12-06T03:56:37.056Z,20.73
2017-12-06T03:59:04.596Z,23.70
2017-12-06T04:01:32.176Z,24.55
2017-12-06T04:03:59.713Z,21.15
2017-12-06T04:06:27.288Z,21.58
2017-12-06T04:08:54.827Z,21.95
2017-12-06T04:11:22.404Z,24.20
2017-12-06T04:13:49.941Z,20.02
2017-12-06T04:16:17.526Z,26.83
2017-12-06T04:18:45.065Z,22.23
2017-12-06T04:21:12.654Z,23.30
2017-12-06T04:23:40.228Z,23.38
2017-12-06T04:26:07.817Z,20.45
2017-12-06T04:28:36.114Z,21.42
2017-12-06T04:31:03.696Z,20.50
2017-12-06T04:33:31.229Z,25.40
2017-12-06T04:35:58.820Z,24.12
2017-12-06T04:38:26.357Z,21.80
2017-12-06T04:40:53.934Z,26.12
2017-12-06T04:43:21.473Z,24.02
2017-12-06T04:45:49.057Z,21.33
2017-12-06T04:48:16.594Z,22.30
2017-12-06T04:50:44.171Z,24.20
2017-12-06T04:53:11.714Z,20.33
2017-12-06T04:55:39.292Z,27.62
2017-12-06T04:58:06.831Z,27.33
2017-12-06T05:00:34.507Z,26.08
2017-12-06T05:03:02.046Z,23.73
2017-12-06T05:05:29.626Z,26.58
2017-12-06T05:07:57.161Z,21.25
2017-12-06T05:10:24.737Z,27.10
2017-12-06T05:12:52.272Z,24.80
2017-12-06T05:15:20.630Z,23.60
2017-12-06T05:17:48.174Z,19.65
2017-12-06T05:20:15.762Z,22.67
2017-12-06T05:22:44.075Z,18.55
2017-12-06T05:25:11.656Z,22.37
2017-12-06T05:27:39.200Z,18.75
2017-12-06T05:30:06.785Z,20.88
2017-12-06T05:32:34.321Z,21.00
2017-12-06T05:35:01.906Z,22.33
2017-12-06T05:37:29.441Z,18.15
2017-12-06T05:39:57.017Z,11.38
2017-12-06T05:42:24.549Z,16.87
2017-12-06T05:44:52.131Z,19.12
2017-12-06T05:47:19.663Z,19.17
2017-12-06T05:49:47.237Z,23.42
2017-12-06T05:52:14.770Z,25.95
2017-12-06T05:54:42.344Z,17.87
2017-12-06T05:57:09.878Z,21.42
2017-12-06T05:59:38.229Z,20.30
2017-12-06T06:02:05.763Z,22.25
2017-12-06T06:04:33.346Z,19.73
2017-12-06T06:07:00.880Z,19.85
2017-12-06T06:09:28.457Z,22.70
2017-12-06T06:11:55.987Z,21.90
2017-12-06T06:14:23.567Z,21.27
2017-12-06T06:16:51.113Z,21.05
2017-12-06T06:19:18.701Z,18.95
2017-12-06T06:21:46.233Z,15.68
2017-12-06T06:24:13.808Z,20.30
2017-12-06T06:26:41.345Z,22.27
2017-12-06T06:29:08.876Z,18.27
2017-12-06T06:31:37.228Z,18.87
2017-12-06T06:34:04.804Z,12.37
2017-12-06T06:36:33.100Z,17.58
2017-12-06T06:39:00.685Z,16.02
2017-12-06T06:41:28.226Z,19.02
2017-12-06T06:43:55.806Z,22.15
2017-12-06T06:46:23.390Z,17.65
2017-12-06T06:48:50.961Z,18.15
2017-12-06T06:51:18.495Z,19.10
2017-12-06T06:53:46.074Z,16.30
2017-12-06T06:56:13.616Z,19.65
2017-12-06T06:58:41.193Z,15.52
2017-12-06T07:01:08.719Z,20.15
2017-12-06T07:03:36.293Z,18.00
2017-12-06T07:06:03.828Z,13.70
2017-12-06T07:08:31.411Z,15.27
2017-12-06T07:10:58.944Z,16.30
2017-12-06T07:13:26.472Z,16.33
2017-12-06T07:15:54.817Z,16.70
2017-12-06T07:18:25.332Z,14.55
2017-12-06T07:20:52.912Z,12.85
2017-12-06T07:23:20.443Z,14.05
2017-12-06T07:25:48.021Z,15.32
2017-12-06T07:28:15.552Z,14.40
2017-12-06T07:30:43.834Z,15.95
2017-12-06T07:33:11.359Z,13.75
2017-12-06T07:35:39.695Z,13.05
2017-12-06T07:38:07.236Z,14.48
2017-12-06T07:40:35.830Z,12.55
2017-12-06T07:43:03.379Z,15.05
2017-12-06T07:45:30.978Z,12.65
2017-12-06T07:47:58.517Z,12.35
2017-12-06T07:50:26.092Z,12.90
2017-12-06T07:52:53.626Z,13.07
2017-12-06T07:55:21.213Z,14.27
2017-12-06T07:57:48.747Z,12.48
2017-12-06T08:00:16.324Z,10.75
2017-12-06T08:02:43.859Z,12.73
2017-12-06T08:05:11.443Z,11.70
2017-12-06T08:07:38.979Z,13.82
2017-12-06T08:10:06.553Z,17.90
2017-12-06T08:12:34.195Z,15.35
2017-12-06T08:15:01.779Z,17.67
2017-12-06T08:17:29.315Z,13.90
2017-12-06T08:19:56.893Z,14.40
2017-12-06T08:22:24.423Z,14.93
2017-12-06T08:24:52.001Z,15.98
2017-12-06T08:27:19.553Z,16.23
2017-12-06T08:29:47.127Z,12.93
2017-12-06T08:32:14.744Z,14.68
2017-12-06T08:34:42.363Z,13.82
2017-12-06T08:37:09.901Z,11.85
2017-12-06T08:39:37.482Z,12.10
2017-12-06T08:42:05.022Z,11.30
2017-12-06T08:44:32.603Z,12.75
2017-12-06T08:47:00.141Z,12.88
2017-12-06T08:49:27.795Z,30.45
2017-12-06T08:51:55.330Z,14.48
2017-12-06T08:54:22.920Z,13.52
2017-12-06T08:56:50.456Z,12.37
2017-12-06T08:59:18.036Z,12.73
2017-12-06T09:01:45.574Z,12.02
2017-12-06T09:04:13.148Z,15.98
2017-12-06T09:06:40.679Z,12.02
2017-12-06T09:09:09.034Z,14.00
2017-12-06T09:11:36.589Z,11.93
2017-12-06T09:14:04.313Z,13.77
2017-12-06T09:16:31.990Z,13.02
2017-12-06T09:18:59.742Z,13.93
2017-12-06T09:21:27.283Z,15.75
2017-12-06T09:23:54.862Z,9.55
2017-12-06T09:26:22.400Z,12.05
2017-12-06T09:28:49.979Z,11.90
2017-12-06T09:31:17.513Z,12.23
2017-12-06T09:33:45.096Z,12.23
2017-12-06T09:36:12.637Z,11.80
2017-12-06T09:38:40.226Z,12.13
2017-12-06T09:41:07.761Z,14.32
2017-12-06T09:43:35.338Z,16.62
2017-12-06T09:46:02.948Z,12.35
2017-12-06T09:48:31.292Z,10.88
2017-12-06T09:50:58.936Z,16.25
2017-12-06T09:53:26.517Z,18.45
2017-12-06T09:55:54.051Z,16.37
2017-12-06T09:58:21.629Z,13.77
2017-12-06T10:00:49.164Z,11.40
2017-12-06T10:03:16.703Z,12.73
2017-12-06T10:05:45.051Z,12.35
2017-12-06T10:08:12.638Z,15.13
2017-12-06T10:10:40.931Z,11.57
2017-12-06T10:13:08.517Z,14.57
2017-12-06T10:15:36.053Z,14.30
2017-12-06T10:18:03.583Z,15.30
2017-12-06T10:20:31.929Z,9.75
2017-12-06T10:22:59.473Z,12.48
2017-12-06T10:25:27.050Z,10.80
2017-12-06T10:27:54.585Z,7.03
2017-12-06T10:30:22.161Z,9.15
2017-12-06T10:32:49.698Z,12.77
2017-12-06T10:35:17.277Z,11.75
2017-12-06T10:37:44.819Z,5.78
2017-12-06T10:40:12.399Z,5.05
2017-12-06T10:42:39.931Z,9.35
2017-12-06T10:45:07.519Z,8.88
2017-12-06T10:47:35.062Z,14.05
2017-12-06T10:50:02.650Z,12.40
2017-12-06T10:52:30.181Z,12.18
2017-12-06T10:54:57.842Z,9.02
2017-12-06T10:57:25.374Z,13.98
2017-12-06T10:59:53.721Z,8.02
2017-12-06T11:02:21.252Z,10.60
2017-12-06T11:04:48.831Z,10.57
2017-12-06T11:07:16.358Z,9.27
2017-12-06T11:09:43.928Z,8.05
2017-12-06T11:12:11.461Z,10.15
2017-12-06T11:14:39.035Z,7.28
2017-12-06T11:17:06.567Z,9.10
2017-12-06T11:19:34.145Z,6.60
2017-12-06T11:22:01.671Z,8.55
2017-12-06T11:24:30.015Z,9.80
2017-12-06T11:26:57.553Z,8.02
2017-12-06T11:29:25.328Z,8.32
2017-12-06T11:31:52.859Z,8.57
2017-12-06T11:34:20.439Z,9.43
2017-12-06T11:36:47.971Z,9.00
2017-12-06T11:39:15.548Z,8.98
2017-12-06T11:41:43.077Z,6.40
2017-12-06T11:44:11.416Z,8.48
2017-12-06T11:46:38.955Z,11.32
2017-12-06T11:49:06.533Z,8.57
2017-12-06T11:51:34.068Z,8.70
2017-12-06T11:54:01.730Z,10.27
2017-12-06T11:56:29.266Z,8.45
2017-12-06T11:58:56.865Z,6.60
2017-12-06T12:01:24.393Z,8.55
2017-12-06T12:03:52.173Z,6.60
2017-12-06T12:06:19.741Z,6.55
2017-12-06T12:08:47.518Z,7.32
2017-12-06T12:11:15.125Z,6.82
2017-12-06T12:13:44.072Z,6.62
2017-12-06T12:16:11.720Z,7.57
2017-12-06T12:18:39.396Z,6.75
2017-12-06T12:21:07.247Z,6.90
2017-12-06T12:23:34.825Z,9.93
2017-12-06T12:26:02.401Z,9.30
2017-12-06T12:28:29.936Z,7.90
2017-12-06T12:30:57.511Z,7.80
2017-12-06T12:33:25.917Z,10.57
2017-12-06T12:35:54.261Z,13.48
2017-12-06T12:38:21.901Z,12.70
2017-12-06T12:40:49.438Z,11.38
2017-12-06T12:43:16.973Z,9.88
2017-12-06T12:45:46.248Z,7.78
2017-12-06T12:48:13.785Z,10.95
2017-12-06T12:50:41.370Z,12.80
2017-12-06T12:53:08.912Z,10.90
2017-12-06T12:55:36.485Z,9.77
2017-12-06T12:58:04.066Z,11.73
2017-12-06T13:00:31.601Z,8.65
2017-12-06T13:02:59.185Z,7.82
2017-12-06T13:05:26.717Z,14.93
2017-12-06T13:07:54.243Z,11.52
2017-12-06T13:10:21.815Z,9.65
2017-12-06T13:12:49.349Z,14.15
2017-12-06T13:15:17.708Z,16.15
2017-12-06T13:17:46.068Z,13.93
2017-12-06T13:20:13.604Z,10.10
2017-12-06T13:22:41.185Z,15.95
2017-12-06T13:25:08.718Z,8.85
2017-12-06T13:27:36.306Z,9.43
2017-12-06T13:30:03.845Z,9.30
2017-12-06T13:32:31.425Z,9.90
2017-12-06T13:34:58.957Z,10.15
2017-12-06T13:37:26.538Z,9.43
2017-12-06T13:39:54.093Z,14.70
2017-12-06T13:42:21.699Z,12.27
2017-12-06T13:44:49.258Z,14.00
2017-12-06T13:47:16.842Z,13.88
2017-12-06T13:49:44.377Z,12.85
2017-12-06T13:52:12.721Z,14.65
2017-12-06T13:54:40.255Z,18.12
2017-12-06T13:57:07.849Z,17.30
2017-12-06T13:59:35.389Z,13.38
2017-12-06T14:02:02.925Z,11.12
2017-12-06T14:04:30.509Z,12.48
2017-12-06T14:06:58.084Z,12.20
2017-12-06T14:09:25.622Z,12.63
2017-12-06T14:11:53.213Z,14.68
2017-12-06T14:14:20.748Z,11.98
2017-12-06T14:16:48.281Z,10.52
2017-12-06T14:19:15.857Z,13.82
2017-12-06T14:21:43.389Z,11.75
2017-12-06T14:24:10.974Z,14.32
2017-12-06T14:26:38.512Z,9.85
2017-12-06T14:29:06.091Z,16.17
2017-12-06T14:31:33.642Z,13.15
2017-12-06T14:34:01.219Z,12.37
2017-12-06T14:36:28.770Z,13.05
2017-12-06T14:38:56.347Z,12.05
2017-12-06T14:41:23.892Z,14.20
2017-12-06T14:43:51.474Z,16.00
2017-12-06T14:46:19.013Z,16.67
2017-12-06T14:48:46.589Z,11.50
2017-12-06T14:51:14.130Z,11.88
2017-12-06T14:53:41.722Z,12.05
2017-12-06T14:56:09.338Z,19.70
2017-12-06T14:58:36.926Z,10.48
2017-12-06T15:01:04.474Z,10.30
2017-12-06T15:03:32.065Z,10.57
2017-12-06T15:06:00.374Z,10.98
2017-12-06T15:08:27.959Z,14.63
2017-12-06T15:10:55.505Z,11.15
2017-12-06T15:13:23.087Z,9.80
2017-12-06T15:15:50.737Z,12.70
2017-12-06T15:18:18.320Z,10.47
2017-12-06T15:20:45.917Z,12.25
2017-12-06T15:23:13.480Z,16.10
2017-12-06T15:25:41.785Z,15.83
2017-12-06T15:28:09.368Z,12.37
2017-12-06T15:30:36.901Z,7.70
2017-12-06T15:33:04.491Z,13.27
2017-12-06T15:35:32.033Z,12.70
2017-12-06T15:37:59.577Z,12.63
2017-12-06T15:40:27.157Z,13.77
2017-12-06T15:42:54.733Z,12.40
2017-12-06T15:45:22.318Z,11.17
2017-12-06T15:47:49.919Z,13.88
2017-12-06T15:50:18.228Z,12.87
2017-12-06T15:52:45.810Z,14.37
2017-12-06T15:55:13.345Z,12.60
2017-12-06T15:57:40.924Z,12.90
2017-12-06T16:00:09.233Z,11.40
2017-12-06T16:02:37.580Z,12.17
2017-12-06T16:05:05.150Z,11.32
2017-12-06T16:07:32.868Z,11.07
2017-12-06T16:10:00.456Z,11.93
2017-12-06T16:12:28.132Z,12.57
2017-12-06T16:14:55.875Z,12.20
2017-12-06T16:17:23.635Z,12.90
2017-12-06T16:19:51.168Z,19.53
2017-12-06T16:22:18.953Z,12.90
2017-12-06T16:24:46.719Z,14.30
2017-12-06T16:27:14.361Z,11.70
2017-12-06T16:29:41.931Z,10.97
2017-12-06T16:32:09.705Z,10.87
2017-12-06T16:34:37.267Z,13.03
2017-12-06T16:37:16.567Z,13.77
2017-12-06T16:39:44.104Z,9.82
2017-12-06T16:42:12.414Z,15.77
2017-12-06T16:44:39.996Z,12.23
2017-12-06T16:47:07.537Z,14.35
2017-12-06T16:49:35.191Z,11.80
2017-12-06T16:52:02.741Z,11.00
2017-12-06T16:54:30.332Z,14.73
2017-12-06T16:56:57.881Z,18.23
2017-12-06T16:59:25.463Z,13.40
2017-12-06T17:01:53.007Z,14.25
2017-12-06T17:04:20.592Z,13.75
2017-12-06T17:06:48.150Z,15.80
2017-12-06T17:09:16.800Z,16.00
2017-12-06T17:11:44.340Z,16.52
2017-12-06T17:14:11.932Z,13.40
2017-12-06T17:16:39.463Z,13.93
2017-12-06T17:19:07.054Z,21.52
2017-12-06T17:21:34.612Z,16.80
2017-12-06T17:24:02.196Z,21.30
2017-12-06T17:26:29.744Z,12.40
2017-12-06T17:29:09.164Z,14.40
2017-12-06T17:31:45.456Z,15.20
2017-12-06T17:34:13.095Z,13.75
2017-12-06T17:36:41.397Z,12.27
2017-12-06T17:39:08.978Z,14.87
2017-12-06T17:41:36.525Z,16.10
2017-12-06T17:44:04.112Z,17.67
2017-12-06T17:46:32.412Z,18.02
2017-12-06T17:49:00.007Z,14.57
2017-12-06T17:51:27.558Z,13.90
2017-12-06T17:53:55.139Z,13.50
2017-12-06T17:56:22.684Z,19.40
2017-12-06T17:58:50.274Z,18.73
2017-12-06T18:01:18.580Z,19.50
2017-12-06T18:03:46.180Z,21.67
2017-12-06T18:06:13.729Z,20.08
2017-12-06T18:08:41.313Z,18.10
2017-12-06T18:11:08.853Z,18.67
2017-12-06T18:13:36.444Z,18.55
2017-12-06T18:16:03.985Z,11.75
2017-12-06T18:18:31.573Z,16.25
2017-12-06T18:20:59.119Z,16.50
2017-12-06T18:23:26.749Z,14.85
2017-12-06T18:25:54.302Z,16.92
2017-12-06T18:28:21.970Z,14.93
2017-12-06T18:30:49.517Z,20.60
2017-12-06T18:33:17.108Z,15.13
2017-12-06T18:35:44.644Z,17.70
2017-12-06T18:38:12.230Z,18.63
2017-12-06T18:40:39.871Z,19.40
2017-12-06T18:43:07.449Z,22.15
2017-12-06T18:45:34.993Z,20.33
2017-12-06T18:48:02.580Z,22.55
2017-12-06T18:50:30.128Z,18.87
2017-12-06T18:52:57.716Z,23.33
2017-12-06T18:55:26.028Z,26.85
2017-12-06T18:57:53.618Z,24.30
2017-12-06T19:00:22.981Z,20.50
2017-12-06T19:02:50.572Z,22.15
2017-12-06T19:05:18.119Z,20.65
2017-12-06T19:07:45.704Z,22.60
2017-12-06T19:10:13.359Z,22.83
2017-12-06T19:12:40.947Z,23.60
2017-12-06T19:15:08.485Z,23.33
2017-12-06T19:17:36.030Z,23.00
2017-12-06T19:20:03.616Z,23.60
2017-12-06T19:22:31.164Z,23.10
2017-12-06T19:24:58.753Z,22.62
2017-12-06T19:27:26.305Z,25.05
2017-12-06T19:29:53.892Z,23.23
2017-12-06T19:32:22.200Z,25.50
2017-12-06T19:34:49.788Z,26.52
2017-12-06T19:37:17.335Z,25.85
2017-12-06T19:39:44.921Z,24.33
2017-12-06T19:42:12.486Z,25.62
2017-12-06T19:44:40.076Z,26.30
2017-12-06T19:47:08.388Z,27.25
2017-12-06T19:49:35.970Z,24.70
2017-12-06T19:52:03.573Z,27.95
2017-12-06T19:54:31.884Z,23.77
2017-12-06T19:56:59.431Z,26.08
2017-12-06T19:59:27.022Z,23.55
2017-12-06T20:01:54.562Z,23.77
2017-12-06T20:04:22.144Z,22.27
2017-12-06T20:06:49.684Z,23.77
2017-12-06T20:09:17.274Z,25.02
2017-12-06T20:11:44.815Z,26.58
2017-12-06T20:14:12.396Z,22.98
2017-12-06T20:16:40.025Z,23.90
2017-12-06T20:19:07.598Z,24.67
2017-12-06T20:21:35.147Z,26.42
2017-12-06T20:24:02.743Z,23.90
2017-12-06T20:26:30.281Z,27.42
2017-12-06T20:28:57.872Z,27.70
2017-12-06T20:31:25.417Z,30.40
2017-12-06T20:33:53.796Z,29.42
2017-12-06T20:36:22.886Z,31.83
2017-12-06T20:38:50.422Z,28.62
2017-12-06T20:41:18.000Z,32.80
2017-12-06T20:43:45.541Z,32.13
2017-12-06T20:46:13.124Z,30.85
2017-12-06T20:48:40.714Z,29.15
2017-12-06T20:51:09.021Z,28.17
2017-12-06T20:53:36.556Z,28.77
2017-12-06T20:56:04.917Z,26.35
2017-12-06T20:58:32.501Z,32.13
2017-12-06T21:01:00.808Z,29.25
2017-12-06T21:03:28.392Z,27.50
2017-12-06T21:05:55.933Z,26.35
2017-12-06T21:08:23.517Z,32.95
2017-12-06T21:10:51.149Z,26.95
2017-12-06T21:13:18.768Z,33.83
2017-12-06T21:15:47.064Z,31.23
2017-12-06T21:18:14.604Z,31.15
2017-12-06T21:20:42.961Z,28.38
2017-12-06T21:23:10.501Z,29.02
2017-12-06T21:25:38.148Z,31.37
2017-12-06T21:28:05.680Z,27.42
2017-12-06T21:30:33.269Z,28.75
2017-12-06T21:33:00.810Z,27.45
2017-12-06T21:35:28.400Z,30.75
2017-12-06T21:37:55.948Z,29.08
2017-12-06T21:40:23.533Z,29.17
2017-12-06T21:42:51.069Z,28.75
2017-12-06T21:45:18.656Z,35.10
2017-12-06T21:47:46.198Z,35.50
2017-12-06T21:50:13.784Z,29.70
2017-12-06T21:52:41.329Z,30.02
2017-12-06T21:55:08.913Z,29.70
2017-12-06T21:57:37.226Z,28.77
2017-12-06T22:00:04.841Z,29.58
2017-12-06T22:02:32.391Z,31.05
2017-12-06T22:05:04.728Z,34.00
2017-12-06T22:07:32.316Z,32.88
2017-12-06T22:09:59.885Z,33.22
2017-12-06T22:12:27.417Z,29.58
2017-12-06T22:14:54.999Z,32.45
2017-12-06T22:17:22.540Z,35.35
2017-12-06T22:19:50.128Z,35.30
2017-12-06T22:22:17.663Z,34.83
2017-12-06T22:24:45.240Z,31.73
2017-12-06T22:27:12.874Z,30.45
2017-12-06T22:29:40.456Z,31.23
2017-12-06T22:32:07.991Z,31.10
2017-12-06T22:34:35.568Z,33.15
2017-12-06T22:37:03.110Z,32.58
2017-12-06T22:39:30.973Z,34.38
2017-12-06T22:41:58.513Z,32.72
2017-12-06T22:44:26.112Z,31.90
2017-12-06T22:46:53.644Z,37.63
2017-12-06T22:49:21.231Z,31.40
2017-12-06T22:51:48.772Z,33.95
2017-12-06T22:54:16.359Z,35.63
2017-12-06T22:56:43.906Z,35.67
2017-12-06T22:59:11.439Z,30.62
2017-12-06T23:01:39.016Z,33.50
2017-12-06T23:04:06.553Z,32.47
2017-12-06T23:06:34.136Z,34.63
2017-12-06T23:09:01.720Z,30.27
2017-12-06T23:11:29.258Z,30.90
2017-12-06T23:13:56.837Z,35.42
2017-12-06T23:16:24.375Z,36.15
2017-12-06T23:18:51.956Z,32.08
2017-12-06T23:21:19.495Z,34.90
2017-12-06T23:23:47.075Z,34.58
2017-12-06T23:26:14.609Z,32.90
2017-12-06T23:28:42.186Z,32.28
2017-12-06T23:31:09.721Z,28.35
2017-12-06T23:33:37.304Z,30.85
2017-12-06T23:36:04.837Z,34.75
2017-12-06T23:38:32.424Z,36.13
2017-12-06T23:41:00.074Z,37.25
2017-12-06T23:43:27.650Z,31.55
2017-12-06T23:45:55.184Z,29.15
2017-12-06T23:48:22.767Z,31.62
2017-12-06T23:50:50.307Z,29.77
2017-12-06T23:53:17.896Z,26.25
2017-12-06T23:55:45.433Z,35.00
2017-12-06T23:58:12.973Z,31.10
